Airfield :
LOGIN :

Register | Disclaimer

   EN    FR    IT 

 










Legend :    VFR   Marginal VFR   IFR   Intensive IFR   Very Intensive IFR
Visi :
Ceiling :
>= 8 km
>= 3000ft
5 to 8 km
1000 to 3000 ft
1500m to 5 km
500 to 1000 ft
800 to 1500m
200 to 500 ft
< 800m
< 200 ft
Symbols :   Thunderstorms  Fog  Heavy snow  Heavy precipitations  Wind > 20 kt
SIGMETs :     Misc.  Thunderstorms  Icing  Turbulence  Mountain Waves  Volcanic Ashes






- Airport Elevation : 247 ft
- IATA code : BLL


EKBI - Billund

CURRENT METAR :
  • 070150Z AUTO 26008KT 9999 -SHRA BKN026/// 10/08 Q1014

EXPIRED METARs :
  • 070120Z AUTO 26009KT 9999 BKN032/// 10/08 Q1014
  • 070050Z AUTO 26009KT 9999 OVC033/// 11/08 Q1014
  • 070020Z AUTO 27009KT 9999 BKN024/// 10/08 Q1013
  • 062350Z AUTO 27009KT 9999 BKN041/// 11/06 Q1013
  • 062320Z AUTO 27012KT 9999 BKN045/// 10/06 Q1013

TAF TAF EKBI
Valid from the 07 at 00:00 until the 08 at 00:00 UTC


062308Z 0700/0724 27012KT 9999 SCT030
TEMPO 0700/0707 SCT020TCU
TEMPO 0707/0714 25015G25KT 4000 SHRA SCT012 BKN020CB
TEMPO 0714/0724 SCT020TCU



MET'MAP, your aeronautical weather chart ! - Copyright ORBIFLY December 2007 - Disclaimer

ORBIFLY MET'MAP TEAM :

Programming & Development : Alexandra Zaïnal
Concept & original design : Baudouin d'Aumeries
Assistance for programming : Marc-Olivier Méhu
Technical & hardware support : Manuel Goepfert

Contact : metmap@orbifly.com




SOURCES & CREDITS :

   NOAA